Time;durP1;ratioP1;P1;durP2;ratioP2;P2;SDS_P1;SDS_P2;PMS_P1;PMS_P2;Temp;Humidity;BMP_temperature;BMP_pressure;BME280_temperature;BME280_humidity;BME280_pressure;Samples;Min_cycle;Max_cycle;Signal;HPM_P1;HPM_P2
2024/01/01 00:00:25;;;;;;;32.95;18.17;;;;;;;7.45;98.74;99715.69;7401732;19;20324;-71
2024/01/01 00:02:53;;;;;;;37.70;17.63;;;;;;;7.45;98.62;99714.84;7400778;19;19939;-71
2024/01/01 00:05:22;;;;;;;36.50;18.75;;;;;;;7.46;98.36;99717.38;7401700;19;19918;-72
2024/01/01 00:07:51;;;;;;;44.55;21.02;;;;;;;7.44;98.28;99714.03;7401953;19;19918;-71
2024/01/01 00:10:44;;;;;;;37.65;21.00;;;;;;;7.46;98.28;99713.84;7400409;19;19915;-71
2024/01/01 00:13:13;;;;;;;40.63;20.52;;;;;;;7.45;98.23;99712.19;7401631;19;19954;-72
2024/01/01 00:16:02;;;;;;;45.53;21.73;;;;;;;7.47;98.75;99707.44;7399789;19;19922;-71
2024/01/01 00:18:30;;;;;;;40.75;20.70;;;;;;;7.45;98.69;99709.50;7401795;19;19919;-71
2024/01/01 00:21:00;;;;;;;45.53;22.20;;;;;;;7.47;98.62;99710.13;7401729;19;19914;-72
2024/01/01 00:23:29;;;;;;;36.63;20.02;;;;;;;7.47;98.40;99707.44;7401722;19;19919;-71
2024/01/01 00:26:00;;;;;;;34.25;20.30;;;;;;;7.48;98.57;99709.13;7401495;19;20257;-71
2024/01/01 00:28:28;;;;;;;35.28;18.42;;;;;;;7.47;98.31;99702.09;7400798;19;19949;-71
2024/01/01 00:30:57;;;;;;;32.22;17.30;;;;;;;7.49;98.01;99710.78;7401538;19;19929;-71
2024/01/01 00:33:26;;;;;;;32.90;17.77;;;;;;;7.50;98.27;99707.94;7401389;19;20376;-71
2024/01/01 00:35:54;;;;;;;32.50;16.15;;;;;;;7.52;97.99;99699.69;7401864;19;20573;-71
2024/01/01 00:38:24;;;;;;;30.42;17.25;;;;;;;7.54;97.53;99692.31;7400005;19;19919;-71
2024/01/01 00:40:52;;;;;;;27.55;14.52;;;;;;;7.56;97.25;99691.09;7401225;19;20035;-71
2024/01/01 00:43:24;;;;;;;28.15;14.77;;;;;;;7.58;97.50;99694.44;7401008;19;19923;-71
2024/01/01 00:45:52;;;;;;;25.08;13.35;;;;;;;7.59;97.25;99688.03;7401198;19;19974;-70
2024/01/01 00:48:41;;;;;;;25.15;12.07;;;;;;;7.61;96.54;99682.50;7399138;19;19970;-70
2024/01/01 00:51:10;;;;;;;23.00;11.23;;;;;;;7.61;96.52;99691.38;7401765;19;19925;-71
2024/01/01 00:53:38;;;;;;;24.65;12.07;;;;;;;7.65;95.83;99686.47;7400730;19;19941;-71
2024/01/01 00:56:07;;;;;;;21.08;10.32;;;;;;;7.69;95.72;99698.47;7400623;19;20375;-71
2024/01/01 00:58:39;;;;;;;20.15;9.55;;;;;;;7.69;95.30;99706.50;7401296;19;19941;-71
2024/01/01 01:01:27;;;;;;;21.05;11.70;;;;;;;7.73;94.96;99697.91;7399511;19;19922;-71
2024/01/01 01:03:56;;;;;;;20.63;11.45;;;;;;;7.76;94.39;99691.34;7399755;19;19919;-72
2024/01/01 01:06:24;;;;;;;22.05;11.80;;;;;;;7.80;94.82;99694.50;7400546;19;19918;-71
2024/01/01 01:08:53;;;;;;;27.23;13.68;;;;;;;7.77;94.47;99681.47;7401193;19;19918;-71
2024/01/01 01:11:22;;;;;;;30.60;14.77;;;;;;;7.77;94.57;99679.59;7400547;19;19953;-71
2024/01/01 01:13:53;;;;;;;27.88;14.73;;;;;;;7.79;94.01;99674.88;7400846;19;19938;-71
2024/01/01 01:16:22;;;;;;;34.15;15.90;;;;;;;7.79;93.74;99685.63;7401316;19;19915;-72
2024/01/01 01:18:50;;;;;;;27.38;14.55;;;;;;;7.80;93.60;99673.03;7399982;19;20366;-71
2024/01/01 01:21:19;;;;;;;30.00;14.90;;;;;;;7.80;94.03;99692.66;7401432;19;19918;-71
2024/01/01 01:24:07;;;;;;;35.15;16.08;;;;;;;7.79;94.03;99685.63;7398266;19;20275;-71
2024/01/01 01:26:56;;;;;;;29.88;15.35;;;;;;;7.80;93.79;99686.44;7397432;19;19978;-71
2024/01/01 01:29:27;;;;;;;34.95;15.93;;;;;;;7.80;93.62;99681.91;7401352;19;19941;-71
2024/01/01 01:31:56;;;;;;;28.50;14.85;;;;;;;7.79;93.72;99693.66;7399227;19;19929;-71
2024/01/01 01:34:25;;;;;;;28.83;15.45;;;;;;;7.81;93.77;99690.81;7399874;19;19918;-70
2024/01/01 01:36:53;;;;;;;29.88;14.68;;;;;;;7.80;93.70;99689.13;7399800;19;19919;-71
2024/01/01 01:39:43;;;;;;;28.77;13.02;;;;;;;7.79;93.84;99682.94;7397248;19;19919;-71
2024/01/01 01:42:11;;;;;;;26.25;11.95;;;;;;;7.81;93.60;99677.41;7399752;19;19927;-71
2024/01/01 01:44:43;;;;;;;22.98;11.43;;;;;;;7.80;93.52;99689.13;7398825;19;19915;-70
2024/01/01 01:47:13;;;;;;;27.33;11.68;;;;;;;7.81;93.45;99690.81;7399824;19;19926;-70
2024/01/01 01:49:42;;;;;;;22.02;11.13;;;;;;;7.83;93.37;99686.06;7399792;19;19922;-71
2024/01/01 01:52:11;;;;;;;22.50;11.32;;;;;;;7.82;93.59;99695.13;7400308;19;19914;-71
2024/01/01 01:54:40;;;;;;;25.90;11.18;;;;;;;7.82;93.24;99701.31;7398728;19;21290;-71
2024/01/01 01:57:09;;;;;;;21.23;10.73;;;;;;;7.81;93.61;99699.66;7397824;19;19926;-71
2024/01/01 01:59:38;;;;;;;21.58;10.45;;;;;;;7.81;93.49;99694.28;7398492;19;19919;-71
2024/01/01 02:02:09;;;;;;;24.45;9.63;;;;;;;7.79;93.93;99712.44;7398533;19;19938;-71
2024/01/01 02:04:38;;;;;;;21.20;11.05;;;;;;;7.76;94.57;99707.44;7398466;19;20284;-71
2024/01/01 02:07:07;;;;;;;26.02;11.25;;;;;;;7.74;94.50;99694.22;7399779;19;19937;-71
2024/01/01 02:09:35;;;;;;;23.50;11.05;;;;;;;7.71;94.56;99693.75;7398836;19;20459;-71
2024/01/01 02:12:04;;;;;;;23.27;10.32;;;;;;;7.71;94.54;99688.41;7398990;19;20261;-71
2024/01/01 02:14:33;;;;;;;27.45;11.85;;;;;;;7.71;94.24;99697.28;7399079;19;19949;-71
2024/01/01 02:17:02;;;;;;;22.40;10.98;;;;;;;7.69;94.14;99690.44;7398214;19;19970;-71
2024/01/01 02:19:33;;;;;;;22.65;10.27;;;;;;;7.72;93.84;99690.88;7398655;19;19930;-71
2024/01/01 02:22:02;;;;;;;22.92;10.68;;;;;;;7.71;93.83;99694.59;7398019;19;19918;-71
2024/01/01 02:24:33;;;;;;;22.20;10.88;;;;;;;7.73;93.71;99691.72;7398519;19;19919;-71
2024/01/01 02:27:02;;;;;;;21.92;10.85;;;;;;;7.75;93.35;99695.06;7397145;19;19978;-72
2024/01/01 02:29:30;;;;;;;21.70;11.40;;;;;;;7.74;93.39;99698.75;7397321;19;19911;-71
2024/01/01 02:31:59;;;;;;;23.20;11.40;;;;;;;7.75;92.75;99701.25;7397865;19;19930;-71
2024/01/01 02:34:28;;;;;;;20.63;10.50;;;;;;;7.75;92.89;99690.53;7398483;19;20250;-71
2024/01/01 02:36:56;;;;;;;27.38;11.52;;;;;;;7.75;92.68;99698.56;7398030;19;19921;-72
2024/01/01 02:39:26;;;;;;;20.30;10.55;;;;;;;7.78;92.51;99702.72;7398330;19;19921;-71
2024/01/01 02:41:57;;;;;;;21.88;10.70;;;;;;;7.76;93.08;99707.44;7396697;19;19926;-71
2024/01/01 02:44:25;;;;;;;25.45;10.48;;;;;;;7.74;93.41;99706.78;7397411;19;19985;-71
2024/01/01 02:47:14;;;;;;;16.17;8.77;;;;;;;7.68;93.33;99696.78;7396229;19;19977;-71
2024/01/01 02:49:42;;;;;;;25.45;9.38;;;;;;;7.68;93.47;99694.13;7397719;19;19914;-71
2024/01/01 02:52:11;;;;;;;22.52;9.40;;;;;;;7.66;93.68;99706.91;7403732;19;19919;-71
2024/01/01 02:54:40;;;;;;;23.67;9.98;;;;;;;7.63;93.35;99691.19;7403663;19;19922;-71
2024/01/01 02:57:12;;;;;;;19.85;9.65;;;;;;;7.65;93.31;99702.53;7404804;19;19923;-71
2024/01/01 02:59:41;;;;;;;25.27;10.45;;;;;;;7.64;93.04;99703.56;7403715;19;20345;-71
2024/01/01 03:02:12;;;;;;;16.50;9.05;;;;;;;7.62;92.73;99709.13;7403356;19;20641;-71
2024/01/01 03:04:40;;;;;;;17.98;9.15;;;;;;;7.66;92.34;99701.53;7404022;19;19914;-71
2024/01/01 03:07:09;;;;;;;17.60;8.07;;;;;;;7.64;92.13;99720.47;7403138;19;19918;-71
2024/01/01 03:09:37;;;;;;;14.30;6.60;;;;;;;7.63;92.08;99699.22;7403880;19;19915;-71
2024/01/01 03:12:06;;;;;;;14.77;7.03;;;;;;;7.62;91.94;99706.44;7403840;19;19922;-71
2024/01/01 03:14:38;;;;;;;16.98;7.30;;;;;;;7.61;92.36;99714.66;7403448;19;19918;-71
2024/01/01 03:17:07;;;;;;;13.77;6.82;;;;;;;7.62;91.94;99706.44;7403144;19;19922;-71
2024/01/01 03:19:35;;;;;;;13.05;6.03;;;;;;;7.59;92.60;99717.50;7403679;19;19943;-71
2024/01/01 03:22:04;;;;;;;13.80;6.03;;;;;;;7.56;93.00;99727.78;7402668;19;19919;-71
2024/01/01 03:24:32;;;;;;;12.25;6.38;;;;;;;7.51;94.28;99722.13;7403894;19;20253;-71
2024/01/01 03:27:21;;;;;;;15.30;6.32;;;;;;;7.43;95.54;99725.75;7401923;19;19998;-71
2024/01/01 03:29:52;;;;;;;14.15;5.03;;;;;;;7.30;97.52;99738.94;7402056;19;19923;-72
2024/01/01 03:32:21;;;;;;;13.02;5.80;;;;;;;7.22;98.53;99721.13;7403966;19;19914;-72
2024/01/01 03:34:50;;;;;;;11.60;5.60;;;;;;;7.15;99.47;99712.16;7402363;19;19939;-72
2024/01/01 03:37:19;;;;;;;14.15;5.68;;;;;;;7.08;100.00;99713.91;7402039;19;19978;-72
2024/01/01 03:39:48;;;;;;;9.93;4.18;;;;;;;7.03;100.00;99710.94;7402082;19;20311;-72
2024/01/01 03:42:17;;;;;;;11.77;4.55;;;;;;;7.00;100.00;99711.31;7402679;19;19915;-72
2024/01/01 03:44:45;;;;;;;11.57;4.35;;;;;;;6.98;100.00;99710.66;7403476;19;19942;-72
2024/01/01 03:47:17;;;;;;;10.25;4.20;;;;;;;6.99;100.00;99719.53;7402382;19;19918;-71
2024/01/01 03:49:45;;;;;;;7.35;3.78;;;;;;;6.98;100.00;99729.41;7403234;19;19926;-72
2024/01/01 03:52:14;;;;;;;8.15;4.20;;;;;;;6.99;100.00;99719.53;7403509;19;19933;-71
2024/01/01 03:54:43;;;;;;;5.63;2.38;;;;;;;7.00;99.89;99708.63;7402809;19;19913;-72
2024/01/01 03:57:11;;;;;;;6.88;2.40;;;;;;;7.04;99.04;99736.69;7401823;19;19927;-72
2024/01/01 03:59:40;;;;;;;6.88;2.28;;;;;;;7.06;98.39;99726.66;7402832;19;19949;-72
2024/01/01 04:02:10;;;;;;;8.13;2.60;;;;;;;7.09;97.01;99737.00;7401163;19;19925;-72
2024/01/01 04:04:44;;;;;;;5.80;1.80;;;;;;;7.06;97.94;99717.78;7402937;19;19920;-72
2024/01/01 04:07:13;;;;;;;7.38;1.73;;;;;;;7.03;98.69;99731.56;7401860;19;19933;-72
2024/01/01 04:09:42;;;;;;;6.43;2.50;;;;;;;6.98;99.59;99720.53;7402822;19;20332;-72
2024/01/01 04:12:10;;;;;;;6.22;1.85;;;;;;;6.92;100.00;99714.06;7401460;19;19915;-71
2024/01/01 04:14:39;;;;;;;3.65;1.70;;;;;;;6.87;100.00;99726.31;7402317;19;19922;-70
2024/01/01 04:17:08;;;;;;;3.78;1.77;;;;;;;6.84;100.00;99724.84;7401696;19;19923;-70
2024/01/01 04:19:36;;;;;;;6.40;1.38;;;;;;;6.84;100.00;99730.19;7402752;19;19953;-71
2024/01/01 04:22:07;;;;;;;3.40;1.35;;;;;;;6.82;100.00;99727.69;7401646;19;20336;-71
2024/01/01 04:24:36;;;;;;;5.28;1.23;;;;;;;6.80;100.00;99724.38;7402342;19;19929;-70
2024/01/01 04:27:05;;;;;;;4.80;2.33;;;;;;;6.78;100.00;99720.22;7401923;19;19918;-71
2024/01/01 04:29:33;;;;;;;6.90;1.38;;;;;;;6.78;100.00;99725.56;7403227;19;19911;-71
2024/01/01 04:32:02;;;;;;;4.85;1.38;;;;;;;6.75;100.00;99723.25;7402738;19;20323;-72
2024/01/01 04:34:31;;;;;;;5.88;1.70;;;;;;;6.75;100.00;99721.41;7402215;19;20335;-71
2024/01/01 04:37:00;;;;;;;5.90;1.52;;;;;;;6.75;100.00;99715.22;7402123;19;20395;-72
2024/01/01 04:39:31;;;;;;;6.18;1.50;;;;;;;6.72;100.00;99719.09;7401272;19;20306;-72
2024/01/01 04:42:00;;;;;;;8.25;1.70;;;;;;;6.71;100.00;99720.13;7401026;19;19918;-71
2024/01/01 04:44:29;;;;;;;2.90;1.13;;;;;;;6.72;100.00;99726.31;7401341;19;19930;-72
2024/01/01 04:46:58;;;;;;;8.48;1.75;;;;;;;6.70;100.00;99721.13;7401890;19;19979;-72
2024/01/01 04:49:26;;;;;;;5.55;1.52;;;;;;;6.69;100.00;99737.34;7400943;19;19911;-72
2024/01/01 04:51:55;;;;;;;4.30;1.23;;;;;;;6.67;100.00;99720.66;7401263;19;19929;-72
2024/01/01 04:54:24;;;;;;;4.72;1.45;;;;;;;6.66;100.00;99722.50;7401483;19;19915;-72
2024/01/01 04:56:55;;;;;;;6.50;1.30;;;;;;;6.65;100.00;99728.84;7401140;19;19943;-72
2024/01/01 04:59:24;;;;;;;3.33;1.05;;;;;;;6.63;100.00;99719.34;7400975;19;19926;-72
2024/01/01 05:01:52;;;;;;;6.68;1.70;;;;;;;6.62;100.00;99731.06;7401676;19;19942;-72
2024/01/01 05:04:21;;;;;;;5.57;1.70;;;;;;;6.61;100.00;99726.72;7401218;19;19922;-72
2024/01/01 05:06:50;;;;;;;5.32;1.60;;;;;;;6.60;100.00;99730.41;7401868;19;19919;-72
2024/01/01 05:09:18;;;;;;;5.40;1.50;;;;;;;6.58;100.00;99725.25;7400262;19;19914;-72
2024/01/01 05:11:47;;;;;;;6.25;2.17;;;;;;;6.60;100.00;99731.22;7401143;19;19918;-72
2024/01/01 05:14:18;;;;;;;5.82;1.30;;;;;;;6.60;100.00;99735.78;7398746;19;19915;-72
2024/01/01 05:16:47;;;;;;;3.85;1.30;;;;;;;6.58;100.00;99727.06;7400615;19;19922;-72
2024/01/01 05:19:35;;;;;;;3.55;1.75;;;;;;;6.57;100.00;99725.41;7399237;19;19929;-72
2024/01/01 05:22:04;;;;;;;6.90;1.63;;;;;;;6.55;100.00;99733.63;7399838;19;19922;-72
2024/01/01 05:24:35;;;;;;;4.43;1.27;;;;;;;6.54;100.00;99734.63;7400711;19;20291;-72
2024/01/01 05:27:07;;;;;;;3.20;1.02;;;;;;;6.53;100.00;99730.28;7400806;19;19942;-72
2024/01/01 05:29:38;;;;;;;3.75;1.08;;;;;;;6.54;100.00;99736.47;7400340;19;20292;-72
2024/01/01 05:32:07;;;;;;;6.20;1.30;;;;;;;6.52;100.00;99733.13;7400904;19;19924;-72
2024/01/01 05:34:36;;;;;;;4.50;1.30;;;;;;;6.48;100.00;99745.19;7398975;19;19938;-73
2024/01/01 05:37:04;;;;;;;4.57;1.40;;;;;;;6.47;100.00;99733.69;7400405;19;19934;-72
2024/01/01 05:39:33;;;;;;;3.65;0.90;;;;;;;6.47;100.00;99730.19;7398696;19;19925;-73
2024/01/01 05:42:02;;;;;;;5.70;1.55;;;;;;;6.46;100.00;99734.69;7400006;19;20474;-72
2024/01/01 05:44:31;;;;;;;4.90;1.83;;;;;;;6.46;100.00;99732.03;7399915;19;19911;-72
2024/01/01 05:47:03;;;;;;;3.22;0.85;;;;;;;6.46;100.00;99723.16;7400623;19;19914;-72
2024/01/01 05:49:31;;;;;;;3.83;1.00;;;;;;;6.48;100.00;99735.34;7400116;19;20274;-72
2024/01/01 05:52:00;;;;;;;6.47;1.50;;;;;;;6.48;100.00;99727.31;7400320;19;19918;-72
2024/01/01 05:54:29;;;;;;;2.55;1.27;;;;;;;6.46;100.00;99732.03;7399076;19;19922;-72
2024/01/01 05:56:57;;;;;;;8.50;1.63;;;;;;;6.47;100.00;99732.84;7399966;19;19923;-72
2024/01/01 05:59:26;;;;;;;3.22;1.20;;;;;;;6.46;100.00;99732.03;7399537;19;19926;-73
2024/01/01 06:01:54;;;;;;;6.88;1.73;;;;;;;6.46;100.00;99744.56;7399781;19;19911;-73
2024/01/01 06:04:26;;;;;;;4.05;1.10;;;;;;;6.46;100.00;99739.22;7398850;19;19935;-72
2024/01/01 06:06:54;;;;;;;4.43;1.20;;;;;;;6.45;100.00;99737.53;7398398;19;20014;-72
2024/01/01 06:09:23;;;;;;;6.95;1.40;;;;;;;6.43;100.00;99729.69;7399258;19;20374;-72
2024/01/01 06:11:52;;;;;;;4.82;1.15;;;;;;;6.46;100.00;99739.22;7398877;19;19911;-72
2024/01/01 06:14:20;;;;;;;6.45;1.02;;;;;;;6.46;100.00;99737.38;7399560;19;19918;-72
2024/01/01 06:16:49;;;;;;;7.20;1.23;;;;;;;6.46;100.00;99744.56;7398168;19;19929;-72
2024/01/01 06:19:40;;;;;;;7.10;1.48;;;;;;;6.47;100.00;99756.94;7397358;19;19949;-72
2024/01/01 06:22:08;;;;;;;2.78;1.20;;;;;;;6.48;100.00;99755.91;7398735;19;19922;-73
2024/01/01 06:24:37;;;;;;;4.30;1.17;;;;;;;6.49;100.00;99769.13;7401706;19;19915;-73
2024/01/01 06:27:06;;;;;;;2.15;0.98;;;;;;;6.49;100.00;99766.44;7404841;19;19922;-73
2024/01/01 06:29:34;;;;;;;4.35;1.48;;;;;;;6.50;100.00;99762.75;7404457;19;19915;-72
2024/01/01 06:32:03;;;;;;;5.57;1.35;;;;;;;6.49;100.00;99770.94;7404833;19;19921;-72
2024/01/01 06:34:32;;;;;;;5.32;1.30;;;;;;;6.49;100.00;99779.81;7404586;19;19925;-72
2024/01/01 06:37:03;;;;;;;2.33;0.82;;;;;;;6.49;100.00;99779.81;7404675;19;19915;-72
2024/01/01 06:39:31;;;;;;;8.68;1.13;;;;;;;6.50;100.00;99768.09;7403844;19;19945;-72
2024/01/01 06:42:00;;;;;;;5.80;1.20;;;;;;;6.53;100.00;99780.28;7405109;19;19926;-72
2024/01/01 06:44:29;;;;;;;9.15;1.13;;;;;;;6.54;100.00;99780.13;7403614;19;19914;-72
2024/01/01 06:46:58;;;;;;;3.92;0.80;;;;;;;6.53;100.00;99783.81;7405035;19;19918;-72
2024/01/01 06:49:26;;;;;;;3.65;1.00;;;;;;;6.56;100.00;99786.09;7403696;19;20296;-72
2024/01/01 06:51:55;;;;;;;8.43;1.42;;;;;;;6.59;100.00;99790.28;7404257;19;19918;-72
2024/01/01 06:54:26;;;;;;;5.00;1.27;;;;;;;6.57;100.00;99801.16;7403192;19;19949;-72
2024/01/01 06:56:55;;;;;;;8.02;1.63;;;;;;;6.61;100.00;99797.13;7404777;19;19946;-73
2024/01/01 06:59:28;;;;;;;6.53;1.58;;;;;;;6.59;100.00;99803.66;7403455;19;19919;-72
2024/01/01 07:01:58;;;;;;;6.07;1.50;;;;;;;6.58;100.00;99808.19;7404344;19;19911;-72
2024/01/01 07:04:26;;;;;;;3.15;0.98;;;;;;;6.63;100.00;99815.69;7403847;19;19985;-72
2024/01/01 07:06:56;;;;;;;2.83;0.88;;;;;;;6.64;100.00;99820.88;7402766;19;20615;-72
2024/01/01 07:09:27;;;;;;;6.53;1.27;;;;;;;6.66;100.00;99809.97;7403717;19;19915;-72
2024/01/01 07:11:58;;;;;;;8.05;1.75;;;;;;;6.68;100.00;99819.50;7403474;19;19925;-72
2024/01/01 07:14:27;;;;;;;4.80;1.20;;;;;;;6.68;100.00;99819.50;7404153;19;19923;-72
2024/01/01 07:16:56;;;;;;;3.80;1.20;;;;;;;6.67;100.00;99823.19;7402622;19;20268;-72
2024/01/01 07:19:25;;;;;;;3.50;1.20;;;;;;;6.68;100.00;99842.75;7403665;19;19922;-72
2024/01/01 07:21:53;;;;;;;6.05;1.52;;;;;;;6.67;100.00;99828.53;7402141;19;19915;-72
2024/01/01 07:24:22;;;;;;;4.50;1.10;;;;;;;6.66;100.00;99832.22;7403654;19;19914;-72
2024/01/01 07:26:53;;;;;;;4.28;1.30;;;;;;;6.66;100.00;99824.19;7403243;19;19922;-72
2024/01/01 07:29:21;;;;;;;5.25;1.38;;;;;;;6.65;100.00;99832.38;7403160;19;19915;-72
2024/01/01 07:31:50;;;;;;;4.80;1.75;;;;;;;6.64;100.00;99838.75;7402715;19;19911;-72
2024/01/01 07:34:39;;;;;;;5.35;1.40;;;;;;;6.64;100.00;99846.78;7400923;19;19926;-72
2024/01/01 07:37:07;;;;;;;3.85;1.13;;;;;;;6.60;100.00;99835.59;7401576;19;19935;-72
2024/01/01 07:39:36;;;;;;;6.40;1.80;;;;;;;6.59;100.00;99847.31;7402304;19;19953;-72
2024/01/01 07:42:08;;;;;;;5.93;1.25;;;;;;;6.59;100.00;99846.47;7402701;19;19923;-72
2024/01/01 07:44:37;;;;;;;3.50;1.25;;;;;;;6.59;100.00;99841.97;7402440;19;20268;-72
2024/01/01 07:47:06;;;;;;;4.85;1.50;;;;;;;6.60;100.00;99866.88;7402853;19;19917;-72
2024/01/01 07:49:35;;;;;;;10.15;1.70;;;;;;;6.61;100.00;99860.50;7401963;19;20035;-72
2024/01/01 07:52:04;;;;;;;5.18;1.33;;;;;;;6.63;100.00;99863.84;7402367;19;19918;-72
2024/01/01 07:54:57;;;;;;;7.95;1.85;;;;;;;6.66;100.00;99863.50;7401411;19;19914;-72
2024/01/01 07:57:28;;;;;;;6.45;1.52;;;;;;;6.66;100.00;99869.69;7401411;19;19922;-72
2024/01/01 07:59:58;;;;;;;3.83;1.20;;;;;;;6.67;100.00;99870.50;7402972;19;19942;-72
2024/01/01 08:02:29;;;;;;;3.42;1.75;;;;;;;6.67;100.00;99878.53;7400828;19;20352;-72
2024/01/01 08:04:58;;;;;;;3.00;0.98;;;;;;;6.65;100.00;99865.31;7402043;19;19922;-72
2024/01/01 08:07:27;;;;;;;3.20;1.52;;;;;;;6.66;100.00;99875.03;7401612;19;19929;-72
2024/01/01 08:09:56;;;;;;;8.77;1.20;;;;;;;6.65;100.00;99869.84;7402162;19;19927;-72
2024/01/01 08:12:24;;;;;;;2.95;0.93;;;;;;;6.67;100.00;99881.22;7401541;19;19945;-72
2024/01/01 08:14:55;;;;;;;3.05;0.93;;;;;;;6.68;100.00;99874.88;7402384;19;19922;-72
2024/01/01 08:17:24;;;;;;;7.47;1.40;;;;;;;6.67;100.00;99908.81;7402430;19;20800;-72
2024/01/01 08:19:52;;;;;;;1.83;0.88;;;;;;;6.66;100.00;99906.31;7402029;19;19943;-72
2024/01/01 08:22:21;;;;;;;5.45;1.02;;;;;;;6.64;100.00;99903.00;7403096;19;19942;-72
2024/01/01 08:24:50;;;;;;;3.63;1.00;;;;;;;6.63;100.00;99912.03;7401558;19;19950;-72
2024/01/01 08:27:18;;;;;;;6.65;1.60;;;;;;;6.64;100.00;99911.03;7401882;19;19915;-72
2024/01/01 08:29:47;;;;;;;2.47;1.00;;;;;;;6.62;100.00;99915.69;7401340;19;19906;-72
2024/01/01 08:32:18;;;;;;;2.00;0.90;;;;;;;6.61;100.00;99919.38;7402100;19;19979;-72
2024/01/01 08:34:47;;;;;;;8.40;1.80;;;;;;;6.59;100.00;99910.69;7400540;19;19945;-72
2024/01/01 08:37:16;;;;;;;6.10;1.23;;;;;;;6.57;100.00;99934.13;7401909;19;19914;-73
2024/01/01 08:39:45;;;;;;;2.60;1.27;;;;;;;6.57;100.00;99928.75;7401440;19;19938;-72
2024/01/01 08:42:13;;;;;;;3.28;0.90;;;;;;;6.57;100.00;99929.59;7401718;19;19946;-72
2024/01/01 08:44:42;;;;;;;4.45;1.08;;;;;;;6.56;100.00;99943.97;7401026;19;20332;-72
2024/01/01 08:47:11;;;;;;;5.78;1.10;;;;;;;6.58;100.00;99933.94;7401898;19;19914;-72
2024/01/01 08:49:42;;;;;;;4.45;1.10;;;;;;;6.59;100.00;99964.22;7401117;19;19919;-72
2024/01/01 08:52:11;;;;;;;3.85;1.00;;;;;;;6.61;100.00;99959.50;7401741;19;19949;-72
2024/01/01 08:54:39;;;;;;;4.93;1.02;;;;;;;6.62;100.00;99953.16;7401468;19;19915;-72
2024/01/01 08:57:08;;;;;;;2.13;0.90;;;;;;;6.62;100.00;99954.00;7401284;19;19990;-72
2024/01/01 08:59:36;;;;;;;3.95;0.70;;;;;;;6.64;100.00;99948.47;7401342;19;19922;-72
2024/01/01 09:02:05;;;;;;;3.38;0.88;;;;;;;6.61;100.00;99959.50;7400135;19;19915;-72
2024/01/01 09:04:34;;;;;;;3.38;0.77;;;;;;;6.58;100.00;99947.31;7401570;19;19930;-72
2024/01/01 09:07:25;;;;;;;1.67;0.80;;;;;;;6.55;100.00;99930.78;7399041;19;20336;-72
2024/01/01 09:09:54;;;;;;;1.25;0.80;;;;;;;6.55;100.00;99942.34;7401421;19;19919;-72
2024/01/01 09:12:23;;;;;;;3.10;0.73;;;;;;;6.52;100.00;99942.66;7401101;19;19926;-72
2024/01/01 09:14:52;;;;;;;4.05;1.10;;;;;;;6.51;100.00;99978.47;7401768;19;19925;-72
2024/01/01 09:17:21;;;;;;;3.38;0.65;;;;;;;6.52;100.00;99964.06;7400675;19;19914;-72
2024/01/01 09:19:52;;;;;;;3.90;0.93;;;;;;;6.50;100.00;99955.41;7401340;19;19918;-72
2024/01/01 09:22:21;;;;;;;1.88;0.40;;;;;;;6.51;100.00;99956.22;7400161;19;20356;-72
2024/01/01 09:24:52;;;;;;;2.03;0.60;;;;;;;6.53;100.00;99954.19;7400632;19;20139;-72
2024/01/01 09:27:21;;;;;;;1.63;0.60;;;;;;;6.54;100.00;99961.22;7401182;19;19918;-72
2024/01/01 09:29:49;;;;;;;2.92;0.55;;;;;;;6.59;100.00;99958.88;7400451;19;20328;-72
2024/01/01 09:32:18;;;;;;;1.27;0.50;;;;;;;6.61;100.00;99971.06;7400260;19;20414;-72
2024/01/01 09:35:08;;;;;;;1.00;0.50;;;;;;;6.66;100.00;99975.88;7398238;19;19918;-72
2024/01/01 09:37:37;;;;;;;3.53;0.60;;;;;;;6.70;100.00;99977.22;7400760;19;19922;-72
2024/01/01 09:40:10;;;;;;;3.13;0.60;;;;;;;6.72;100.00;99988.59;7400229;19;19915;-72
2024/01/01 09:42:39;;;;;;;2.95;0.70;;;;;;;6.76;100.00;99987.22;7399762;19;19926;-72
2024/01/01 09:45:09;;;;;;;4.25;0.80;;;;;;;6.79;100.00;99984.19;7399457;19;20352;-72
2024/01/01 09:47:40;;;;;;;3.00;0.90;;;;;;;6.83;100.00;99989.03;7399351;19;20283;-72
2024/01/01 09:50:09;;;;;;;4.32;1.38;;;;;;;6.89;100.00;99982.16;7399925;19;19914;-72
2024/01/01 09:52:38;;;;;;;4.35;1.13;;;;;;;6.93;100.00;99986.16;7399805;19;19919;-72
2024/01/01 09:55:10;;;;;;;5.82;1.50;;;;;;;6.94;100.00;99993.19;7399931;19;19922;-72
2024/01/01 09:57:39;;;;;;;4.07;1.15;;;;;;;6.95;100.00;100024.28;7399557;19;19919;-72
2024/01/01 10:00:21;;;;;;;6.00;1.52;;;;;;;6.97;100.00;100016.91;7397799;19;19925;-72
2024/01/01 10:02:51;;;;;;;5.40;0.90;;;;;;;7.00;100.00;100037.97;7399656;19;19947;-72
2024/01/01 10:05:20;;;;;;;2.88;0.70;;;;;;;6.97;100.00;100073.16;7398269;19;19934;-72
2024/01/01 10:08:13;;;;;;;1.33;0.35;;;;;;;6.84;100.00;100054.13;7397135;19;19922;-72
2024/01/01 10:10:45;;;;;;;2.60;0.38;;;;;;;6.72;100.00;100053.66;7398870;19;19923;-72
2024/01/01 10:13:17;;;;;;;1.75;0.20;;;;;;;6.61;100.00;100047.81;7398539;19;19919;-72
2024/01/01 10:15:45;;;;;;;1.23;0.30;;;;;;;6.57;100.00;100058.03;7399177;19;19918;-72
2024/01/01 10:18:16;;;;;;;1.70;0.47;;;;;;;6.51;100.00;100031.16;7398995;19;19923;-74
2024/01/01 10:20:45;;;;;;;1.58;0.50;;;;;;;6.48;100.00;100036.81;7398615;19;19942;-73
2024/01/01 10:23:34;;;;;;;1.83;0.50;;;;;;;6.44;100.00;100052.38;7396919;19;19914;-73
2024/01/01 10:26:12;;;;;;;2.20;0.40;;;;;;;6.42;100.00;100048.22;7398750;19;20347;-72
2024/01/01 10:28:44;;;;;;;1.27;0.20;;;;;;;6.42;100.00;100040.19;7398344;19;19919;-71
2024/01/01 10:31:15;;;;;;;3.38;0.40;;;;;;;6.39;100.00;100026.13;7397455;19;19919;-71
2024/01/01 10:33:45;;;;;;;1.25;0.60;;;;;;;6.39;100.00;100052.91;7398252;19;19938;-71
2024/01/01 10:36:33;;;;;;;1.52;0.45;;;;;;;6.43;100.00;100055.25;7396577;19;19914;-71
2024/01/01 10:39:24;;;;;;;4.15;0.40;;;;;;;6.45;100.00;100055.91;7396041;19;20415;-72
2024/01/01 10:41:55;;;;;;;3.92;0.80;;;;;;;6.48;100.00;100059.06;7397757;19;19922;-71
2024/01/01 10:44:24;;;;;;;3.78;0.90;;;;;;;6.55;100.00;100065.41;7396738;19;19914;-72
2024/01/01 10:46:59;;;;;;;6.93;1.50;;;;;;;6.63;100.00;100073.44;7398265;19;19922;-71
2024/01/01 10:49:32;;;;;;;6.40;1.33;;;;;;;6.70;100.00;100074.41;7398043;19;19927;-71
2024/01/01 10:52:25;;;;;;;7.28;1.50;;;;;;;6.76;100.00;100095.13;7396942;19;19941;-71
2024/01/01 10:55:11;;;;;;;3.63;1.20;;;;;;;6.81;100.00;100091.94;7397223;19;19919;-71
2024/01/01 10:58:14;;;;;;;6.05;1.08;;;;;;;6.75;100.00;100090.78;7396431;19;20256;-71
2024/01/01 11:00:52;;;;;;;1.63;0.50;;;;;;;6.61;100.00;100075.41;7396924;19;19931;-71
2024/01/01 11:03:21;;;;;;;2.50;0.30;;;;;;;6.57;100.00;100084.81;7397525;19;19923;-71
2024/01/01 11:05:50;;;;;;;4.07;0.90;;;;;;;6.58;100.00;100085.63;7396522;19;19962;-71
2024/01/01 11:08:39;;;;;;;6.10;1.10;;;;;;;6.64;100.00;100077.78;7395077;19;19923;-72
2024/01/01 11:11:31;;;;;;;6.40;1.25;;;;;;;6.71;100.00;100093.97;7397752;19;19922;-71
2024/01/01 11:14:02;;;;;;;6.13;1.25;;;;;;;6.79;100.00;100094.78;7402843;19;20317;-71
2024/01/01 11:16:51;;;;;;;6.55;1.58;;;;;;;6.86;100.00;100089.56;7403431;19;19914;-72
2024/01/01 11:19:38;;;;;;;10.43;1.70;;;;;;;6.90;100.00;100115.00;7402970;19;19915;-73
2024/01/01 11:22:33;;;;;;;8.77;1.35;;;;;;;6.97;100.00;100099.09;7402585;19;19914;-73
2024/01/01 11:25:04;;;;;;;4.18;0.80;;;;;;;7.04;100.00;100102.72;7401949;19;19937;-73
2024/01/01 11:27:34;;;;;;;6.50;1.10;;;;;;;7.10;100.00;100100.22;7402623;19;19918;-73
2024/01/01 11:30:09;;;;;;;4.63;1.00;;;;;;;7.12;100.00;100113.44;7402314;19;20618;-72
2024/01/01 11:32:38;;;;;;;8.07;1.40;;;;;;;7.15;100.00;100113.91;7403979;19;19966;-72
2024/01/01 11:35:09;;;;;;;6.72;1.08;;;;;;;7.20;100.00;100116.91;7402359;19;20281;-72
2024/01/01 11:37:39;;;;;;;3.97;0.82;;;;;;;7.26;100.00;100112.69;7402882;19;19923;-73
2024/01/01 11:40:09;;;;;;;3.55;0.82;;;;;;;7.31;100.00;100126.41;7402735;19;19991;-73
2024/01/01 11:42:39;;;;;;;5.75;1.38;;;;;;;7.33;100.00;100123.56;7401732;19;19918;-71
2024/01/01 11:45:18;;;;;;;7.68;1.05;;;;;;;7.32;100.00;100106.66;7403605;19;20341;-71
2024/01/01 11:47:48;;;;;;;4.47;1.45;;;;;;;7.35;100.00;100122.34;7401275;19;19922;-72